sensor_id;sensor_type;location;lat;lon;timestamp;pressure;altitude;pressure_sealevel;temperature;humidity
44765;BME280;30484;52.382;5.260;2022-12-07T00:00:27;101933.88;;;7.76;100.00
44765;BME280;30484;52.382;5.260;2022-12-07T00:02:56;101937.47;;;7.73;100.00
44765;BME280;30484;52.382;5.260;2022-12-07T00:05:27;101934.25;;;7.57;100.00
44765;BME280;30484;52.382;5.260;2022-12-07T00:07:59;101940.31;;;7.66;100.00
44765;BME280;30484;52.382;5.260;2022-12-07T00:10:28;101940.41;;;7.59;100.00
44765;BME280;30484;52.382;5.260;2022-12-07T00:12:58;101936.06;;;7.57;100.00
44765;BME280;30484;52.382;5.260;2022-12-07T00:15:27;101946.81;;;7.49;100.00
44765;BME280;30484;52.382;5.260;2022-12-07T00:17:56;101940.53;;;7.53;100.00
44765;BME280;30484;52.382;5.260;2022-12-07T00:20:25;101933.69;;;7.41;100.00
44765;BME280;30484;52.382;5.260;2022-12-07T00:22:54;101934.41;;;7.50;100.00
44765;BME280;30484;52.382;5.260;2022-12-07T00:25:23;101927.66;;;7.32;100.00
44765;BME280;30484;52.382;5.260;2022-12-07T00:27:52;101933.53;;;7.49;100.00
44765;BME280;30484;52.382;5.260;2022-12-07T00:30:24;101934.94;;;7.22;100.00
44765;BME280;30484;52.382;5.260;2022-12-07T00:32:52;101930.66;;;7.15;100.00
44765;BME280;30484;52.382;5.260;2022-12-07T00:35:21;101926.75;;;7.34;100.00
44765;BME280;30484;52.382;5.260;2022-12-07T00:37:51;101928.28;;;7.46;100.00
44765;BME280;30484;52.382;5.260;2022-12-07T00:40:21;101924.78;;;7.44;100.00
44765;BME280;30484;52.382;5.260;2022-12-07T00:42:51;101913.38;;;7.37;100.00
44765;BME280;30484;52.382;5.260;2022-12-07T00:45:20;101908.06;;;7.37;100.00
44765;BME280;30484;52.382;5.260;2022-12-07T00:47:51;101910.13;;;7.23;100.00
44765;BME280;30484;52.382;5.260;2022-12-07T00:50:22;101912.28;;;7.48;100.00
44765;BME280;30484;52.382;5.260;2022-12-07T00:52:54;101907.91;;;7.45;100.00
44765;BME280;30484;52.382;5.260;2022-12-07T00:55:32;101905.31;;;7.42;100.00
44765;BME280;30484;52.382;5.260;2022-12-07T00:58:01;101903.13;;;7.17;100.00
44765;BME280;30484;52.382;5.260;2022-12-07T01:00:36;101903.03;;;7.22;100.00
44765;BME280;30484;52.382;5.260;2022-12-07T01:03:11;101903.56;;;6.94;100.00
44765;BME280;30484;52.382;5.260;2022-12-07T01:05:50;101898.59;;;7.24;100.00
44765;BME280;30484;52.382;5.260;2022-12-07T01:08:20;101905.63;;;7.25;100.00
44765;BME280;30484;52.382;5.260;2022-12-07T01:10:59;101910.22;;;7.18;100.00
44765;BME280;30484;52.382;5.260;2022-12-07T01:13:28;101908.38;;;7.20;100.00
44765;BME280;30484;52.382;5.260;2022-12-07T01:16:04;101912.03;;;7.15;100.00
44765;BME280;30484;52.382;5.260;2022-12-07T01:18:42;101912.06;;;7.13;100.00
44765;BME280;30484;52.382;5.260;2022-12-07T01:21:14;101914.88;;;7.05;100.00
44765;BME280;30484;52.382;5.260;2022-12-07T01:23:44;101926.78;;;6.83;100.00
44765;BME280;30484;52.382;5.260;2022-12-07T01:26:16;101931.47;;;6.68;100.00
44765;BME280;30484;52.382;5.260;2022-12-07T01:28:46;101922.06;;;7.00;100.00
44765;BME280;30484;52.382;5.260;2022-12-07T01:31:19;101929.81;;;7.11;100.00
44765;BME280;30484;52.382;5.260;2022-12-07T01:33:53;101929.88;;;7.08;100.00
44765;BME280;30484;52.382;5.260;2022-12-07T01:36:27;101927.09;;;7.16;100.00
44765;BME280;30484;52.382;5.260;2022-12-07T01:39:00;101935.06;;;7.16;100.00
44765;BME280;30484;52.382;5.260;2022-12-07T01:41:32;101925.09;;;7.27;100.00
44765;BME280;30484;52.382;5.260;2022-12-07T01:44:19;101921.28;;;7.40;100.00
44765;BME280;30484;52.382;5.260;2022-12-07T01:46:53;101921.41;;;7.34;100.00
44765;BME280;30484;52.382;5.260;2022-12-07T01:49:30;101915.84;;;7.47;100.00
44765;BME280;30484;52.382;5.260;2022-12-07T01:52:10;101920.84;;;7.17;100.00
44765;BME280;30484;52.382;5.260;2022-12-07T01:54:42;101923.88;;;7.43;100.00
44765;BME280;30484;52.382;5.260;2022-12-07T01:57:14;101914.97;;;7.46;100.00
44765;BME280;30484;52.382;5.260;2022-12-07T01:59:47;101908.16;;;7.33;100.00
44765;BME280;30484;52.382;5.260;2022-12-07T02:02:23;101912.16;;;7.54;100.00
44765;BME280;30484;52.382;5.260;2022-12-07T02:05:03;101901.41;;;7.60;100.00
44765;BME280;30484;52.382;5.260;2022-12-07T02:07:36;101899.72;;;7.56;100.00
44765;BME280;30484;52.382;5.260;2022-12-07T02:10:16;101900.34;;;7.69;100.00
44765;BME280;30484;52.382;5.260;2022-12-07T02:12:51;101894.91;;;7.73;100.00
44765;BME280;30484;52.382;5.260;2022-12-07T02:15:24;101882.31;;;7.82;100.00
44765;BME280;30484;52.382;5.260;2022-12-07T02:18:01;101886.75;;;7.83;100.00
44765;BME280;30484;52.382;5.260;2022-12-07T02:20:38;101885.78;;;7.87;100.00
44765;BME280;30484;52.382;5.260;2022-12-07T02:23:41;101890.25;;;7.83;100.00
44765;BME280;30484;52.382;5.260;2022-12-07T02:27:06;101895.28;;;7.97;100.00
44765;BME280;30484;52.382;5.260;2022-12-07T02:29:47;101888.75;;;7.71;100.00
44765;BME280;30484;52.382;5.260;2022-12-07T02:32:24;101888.94;;;7.62;100.00
44765;BME280;30484;52.382;5.260;2022-12-07T02:35:02;101882.50;;;7.74;100.00
44765;BME280;30484;52.382;5.260;2022-12-07T02:37:39;101880.31;;;7.93;100.00
44765;BME280;30484;52.382;5.260;2022-12-07T02:40:18;101876.03;;;7.86;100.00
44765;BME280;30484;52.382;5.260;2022-12-07T02:42:53;101886.81;;;7.78;100.00
44765;BME280;30484;52.382;5.260;2022-12-07T02:45:26;101875.38;;;7.74;100.00
44765;BME280;30484;52.382;5.260;2022-12-07T02:48:00;101873.09;;;7.98;100.00
44765;BME280;30484;52.382;5.260;2022-12-07T02:50:31;101874.75;;;8.02;100.00
44765;BME280;30484;52.382;5.260;2022-12-07T02:53:00;101873.25;;;7.90;100.00
44765;BME280;30484;52.382;5.260;2022-12-07T02:55:36;101867.91;;;7.92;100.00
44765;BME280;30484;52.382;5.260;2022-12-07T02:58:32;101872.38;;;7.90;100.00
44765;BME280;30484;52.382;5.260;2022-12-07T03:01:15;101873.09;;;7.98;100.00
44765;BME280;30484;52.382;5.260;2022-12-07T03:04:02;101872.16;;;7.99;100.00
44765;BME280;30484;52.382;5.260;2022-12-07T03:06:47;101871.97;;;7.68;100.00
44765;BME280;30484;52.382;5.260;2022-12-07T03:09:22;101879.44;;;7.50;100.00
44765;BME280;30484;52.382;5.260;2022-12-07T03:11:59;101876.88;;;7.46;100.00
44765;BME280;30484;52.382;5.260;2022-12-07T03:14:34;101886.16;;;7.68;100.00
44765;BME280;30484;52.382;5.260;2022-12-07T03:17:12;101888.88;;;7.65;100.00
44765;BME280;30484;52.382;5.260;2022-12-07T03:19:45;101893.03;;;7.78;100.00
44765;BME280;30484;52.382;5.260;2022-12-07T03:22:16;101887.13;;;7.64;100.00
44765;BME280;30484;52.382;5.260;2022-12-07T03:24:53;101883.66;;;7.60;100.00
44765;BME280;30484;52.382;5.260;2022-12-07T03:27:28;101887.41;;;7.50;100.00
44765;BME280;30484;52.382;5.260;2022-12-07T03:30:04;101883.91;;;7.50;100.00
44765;BME280;30484;52.382;5.260;2022-12-07T03:32:40;101874.91;;;7.55;100.00
44765;BME280;30484;52.382;5.260;2022-12-07T03:35:17;101872.09;;;7.63;100.00
44765;BME280;30484;52.382;5.260;2022-12-07T03:37:55;101864.84;;;7.70;100.00
44765;BME280;30484;52.382;5.260;2022-12-07T03:40:30;101871.13;;;7.67;100.00
44765;BME280;30484;52.382;5.260;2022-12-07T03:43:01;101863.41;;;7.53;100.00
44765;BME280;30484;52.382;5.260;2022-12-07T03:45:40;101858.03;;;7.56;100.00
44765;BME280;30484;52.382;5.260;2022-12-07T03:48:32;101860.78;;;7.52;100.00
44765;BME280;30484;52.382;5.260;2022-12-07T03:51:17;101852.75;;;7.55;100.00
44765;BME280;30484;52.382;5.260;2022-12-07T03:53:54;101851.84;;;7.56;100.00
44765;BME280;30484;52.382;5.260;2022-12-07T03:56:28;101859.03;;;7.51;100.00
44765;BME280;30484;52.382;5.260;2022-12-07T03:58:58;101847.53;;;7.50;100.00
44765;BME280;30484;52.382;5.260;2022-12-07T04:01:29;101855.78;;;7.36;100.00
44765;BME280;30484;52.382;5.260;2022-12-07T04:04:03;101846.13;;;7.32;100.00
44765;BME280;30484;52.382;5.260;2022-12-07T04:06:33;101846.13;;;7.32;100.00
44765;BME280;30484;52.382;5.260;2022-12-07T04:09:04;101846.38;;;7.21;100.00
44765;BME280;30484;52.382;5.260;2022-12-07T04:11:36;101843.66;;;7.23;100.00
44765;BME280;30484;52.382;5.260;2022-12-07T04:14:06;101831.50;;;7.09;100.00
44765;BME280;30484;52.382;5.260;2022-12-07T04:16:54;101847.66;;;7.00;100.00
44765;BME280;30484;52.382;5.260;2022-12-07T04:19:29;101848.94;;;6.79;100.00
44765;BME280;30484;52.382;5.260;2022-12-07T04:22:01;101860.22;;;6.90;100.00
44765;BME280;30484;52.382;5.260;2022-12-07T04:24:31;101862.09;;;6.87;100.00
44765;BME280;30484;52.382;5.260;2022-12-07T04:27:00;101862.34;;;6.71;100.00
44765;BME280;30484;52.382;5.260;2022-12-07T04:29:30;101867.56;;;6.25;100.00
44765;BME280;30484;52.382;5.260;2022-12-07T04:32:02;101877.09;;;6.36;100.00
44765;BME280;30484;52.382;5.260;2022-12-07T04:34:34;101875.78;;;6.62;100.00
44765;BME280;30484;52.382;5.260;2022-12-07T04:37:10;101856.97;;;6.76;100.00
44765;BME280;30484;52.382;5.260;2022-12-07T04:39:39;101857.66;;;6.86;100.00
44765;BME280;30484;52.382;5.260;2022-12-07T04:42:08;101849.50;;;6.95;100.00
44765;BME280;30484;52.382;5.260;2022-12-07T04:44:40;101860.75;;;7.09;100.00
44765;BME280;30484;52.382;5.260;2022-12-07T04:47:10;101852.75;;;7.13;100.00
44765;BME280;30484;52.382;5.260;2022-12-07T04:49:47;101856.22;;;7.15;100.00
44765;BME280;30484;52.382;5.260;2022-12-07T04:52:16;101844.63;;;7.19;100.00
44765;BME280;30484;52.382;5.260;2022-12-07T04:54:46;101834.81;;;7.24;100.00
44765;BME280;30484;52.382;5.260;2022-12-07T04:57:15;101836.44;;;7.31;100.00
44765;BME280;30484;52.382;5.260;2022-12-07T04:59:51;101830.53;;;7.15;100.00
44765;BME280;30484;52.382;5.260;2022-12-07T05:02:22;101841.53;;;7.40;100.00
44765;BME280;30484;52.382;5.260;2022-12-07T05:04:55;101834.94;;;7.58;100.00
44765;BME280;30484;52.382;5.260;2022-12-07T05:07:24;101836.69;;;7.61;100.00
44765;BME280;30484;52.382;5.260;2022-12-07T05:09:54;101835.56;;;7.29;100.00
44765;BME280;30484;52.382;5.260;2022-12-07T05:12:25;101838.34;;;7.65;100.00
44765;BME280;30484;52.382;5.260;2022-12-07T05:14:56;101841.00;;;7.67;100.00
44765;BME280;30484;52.382;5.260;2022-12-07T05:17:25;101840.41;;;7.51;100.00
44765;BME280;30484;52.382;5.260;2022-12-07T05:19:58;101838.94;;;7.80;100.00
44765;BME280;30484;52.382;5.260;2022-12-07T05:22:28;101839.28;;;7.64;100.00
44765;BME280;30484;52.382;5.260;2022-12-07T05:24:58;101836.91;;;7.50;100.00
44765;BME280;30484;52.382;5.260;2022-12-07T05:27:28;101850.63;;;7.71;100.00
44765;BME280;30484;52.382;5.260;2022-12-07T05:29:56;101848.72;;;7.37;100.00
44765;BME280;30484;52.382;5.260;2022-12-07T05:32:30;101852.00;;;7.50;100.00
44765;BME280;30484;52.382;5.260;2022-12-07T05:35:02;101847.94;;;7.72;100.00
44765;BME280;30484;52.382;5.260;2022-12-07T05:37:31;101856.69;;;7.37;100.00
44765;BME280;30484;52.382;5.260;2022-12-07T05:40:04;101850.44;;;7.38;100.00
44765;BME280;30484;52.382;5.260;2022-12-07T05:42:35;101846.00;;;7.79;100.00
44765;BME280;30484;52.382;5.260;2022-12-07T05:45:09;101845.09;;;7.39;100.00
44765;BME280;30484;52.382;5.260;2022-12-07T05:47:40;101845.19;;;7.77;100.00
44765;BME280;30484;52.382;5.260;2022-12-07T05:50:13;101839.31;;;7.63;100.00
44765;BME280;30484;52.382;5.260;2022-12-07T05:52:42;101838.84;;;7.83;100.00
44765;BME280;30484;52.382;5.260;2022-12-07T05:55:10;101831.63;;;7.88;100.00
44765;BME280;30484;52.382;5.260;2022-12-07T05:57:41;101826.34;;;7.86;100.00
44765;BME280;30484;52.382;5.260;2022-12-07T06:00:31;101832.47;;;7.90;100.00
44765;BME280;30484;52.382;5.260;2022-12-07T06:03:01;101828.34;;;7.76;100.00
44765;BME280;30484;52.382;5.260;2022-12-07T06:05:32;101821.13;;;7.82;100.00
44765;BME280;30484;52.382;5.260;2022-12-07T06:08:01;101811.91;;;7.57;100.00
44765;BME280;30484;52.382;5.260;2022-12-07T06:10:32;101822.75;;;7.89;100.00
44765;BME280;30484;52.382;5.260;2022-12-07T06:13:01;101826.44;;;7.82;100.00
44765;BME280;30484;52.382;5.260;2022-12-07T06:15:28;101807.00;;;7.80;100.00
44765;BME280;30484;52.382;5.260;2022-12-07T06:17:59;101820.81;;;7.56;100.00
44765;BME280;30484;52.382;5.260;2022-12-07T06:20:30;101830.44;;;7.62;100.00
44765;BME280;30484;52.382;5.260;2022-12-07T06:22:59;101832.13;;;7.66;100.00
44765;BME280;30484;52.382;5.260;2022-12-07T06:25:29;101819.91;;;7.57;100.00
44765;BME280;30484;52.382;5.260;2022-12-07T06:27:57;101833.41;;;7.47;100.00
44765;BME280;30484;52.382;5.260;2022-12-07T06:30:28;101823.88;;;7.36;100.00
44765;BME280;30484;52.382;5.260;2022-12-07T06:32:56;101821.41;;;7.29;100.00
44765;BME280;30484;52.382;5.260;2022-12-07T06:35:25;101821.53;;;7.21;100.00
44765;BME280;30484;52.382;5.260;2022-12-07T06:37:55;101826.13;;;7.14;100.00
44765;BME280;30484;52.382;5.260;2022-12-07T06:40:25;101821.81;;;7.08;100.00
44765;BME280;30484;52.382;5.260;2022-12-07T06:42:56;101822.00;;;6.98;100.00
44765;BME280;30484;52.382;5.260;2022-12-07T06:45:27;101829.19;;;6.93;100.00
44765;BME280;30484;52.382;5.260;2022-12-07T06:47:56;101832.88;;;6.87;100.00
44765;BME280;30484;52.382;5.260;2022-12-07T06:50:26;101834.72;;;6.82;100.00
44765;BME280;30484;52.382;5.260;2022-12-07T06:52:58;101833.88;;;6.78;100.00
44765;BME280;30484;52.382;5.260;2022-12-07T06:55:28;101838.44;;;6.73;100.00
44765;BME280;30484;52.382;5.260;2022-12-07T06:57:58;101839.41;;;6.67;100.00
44765;BME280;30484;52.382;5.260;2022-12-07T07:00:29;101832.53;;;6.55;100.00
44765;BME280;30484;52.382;5.260;2022-12-07T07:02:58;101830.84;;;6.50;100.00
44765;BME280;30484;52.382;5.260;2022-12-07T07:05:27;101838.78;;;6.53;100.00
44765;BME280;30484;52.382;5.260;2022-12-07T07:07:58;101837.94;;;6.49;100.00
44765;BME280;30484;52.382;5.260;2022-12-07T07:10:47;101836.09;;;6.54;100.00
44765;BME280;30484;52.382;5.260;2022-12-07T07:13:15;101831.78;;;6.49;100.00
44765;BME280;30484;52.382;5.260;2022-12-07T07:15:45;101831.75;;;6.50;100.00
44765;BME280;30484;52.382;5.260;2022-12-07T07:18:13;101826.53;;;6.46;100.00
44765;BME280;30484;52.382;5.260;2022-12-07T07:20:42;101837.16;;;6.46;100.00
44765;BME280;30484;52.382;5.260;2022-12-07T07:23:14;101836.28;;;6.44;100.00
44765;BME280;30484;52.382;5.260;2022-12-07T07:25:42;101833.69;;;6.39;100.00
44765;BME280;30484;52.382;5.260;2022-12-07T07:28:11;101839.16;;;6.30;100.00
44765;BME280;30484;52.382;5.260;2022-12-07T07:30:41;101838.22;;;6.32;100.00
44765;BME280;30484;52.382;5.260;2022-12-07T07:33:12;101838.22;;;6.32;100.00
44765;BME280;30484;52.382;5.260;2022-12-07T07:35:41;101841.84;;;6.28;100.00
44765;BME280;30484;52.382;5.260;2022-12-07T07:38:10;101839.19;;;6.28;100.00
44765;BME280;30484;52.382;5.260;2022-12-07T07:40:42;101846.28;;;6.28;100.00
44765;BME280;30484;52.382;5.260;2022-12-07T07:43:11;101856.91;;;6.28;100.00
44765;BME280;30484;52.382;5.260;2022-12-07T07:45:40;101859.38;;;6.37;100.00
44765;BME280;30484;52.382;5.260;2022-12-07T07:48:10;101858.03;;;6.10;100.00
44765;BME280;30484;52.382;5.260;2022-12-07T07:50:40;101861.34;;;6.27;100.00
44765;BME280;30484;52.382;5.260;2022-12-07T07:53:10;101852.16;;;6.47;100.00
44765;BME280;30484;52.382;5.260;2022-12-07T07:55:41;101853.69;;;6.60;100.00
44765;BME280;30484;52.382;5.260;2022-12-07T07:58:11;101858.97;;;6.63;100.00
44765;BME280;30484;52.382;5.260;2022-12-07T08:00:40;101855.06;;;6.83;100.00
44765;BME280;30484;52.382;5.260;2022-12-07T08:03:10;101861.06;;;6.94;100.00
44765;BME280;30484;52.382;5.260;2022-12-07T08:05:40;101857.31;;;7.04;100.00
44765;BME280;30484;52.382;5.260;2022-12-07T08:08:10;101846.53;;;7.12;100.00
44765;BME280;30484;52.382;5.260;2022-12-07T08:10:41;101854.75;;;7.00;100.00
44765;BME280;30484;52.382;5.260;2022-12-07T08:13:12;101861.38;;;6.77;100.00
44765;BME280;30484;52.382;5.260;2022-12-07T08:15:43;101859.63;;;7.23;100.00
44765;BME280;30484;52.382;5.260;2022-12-07T08:18:13;101864.56;;;7.41;100.00
44765;BME280;30484;52.382;5.260;2022-12-07T08:20:45;101861.03;;;7.39;100.00
44765;BME280;30484;52.382;5.260;2022-12-07T08:23:13;101860.25;;;7.36;100.00
44765;BME280;30484;52.382;5.260;2022-12-07T08:25:44;101866.22;;;7.47;100.00
44765;BME280;30484;52.382;5.260;2022-12-07T08:28:12;101852.38;;;7.72;100.00
44765;BME280;30484;52.382;5.260;2022-12-07T08:30:41;101854.38;;;7.62;100.00
44765;BME280;30484;52.382;5.260;2022-12-07T08:33:18;101858.38;;;7.82;100.00
44765;BME280;30484;52.382;5.260;2022-12-07T08:35:50;101858.38;;;7.82;100.00
44765;BME280;30484;52.382;5.260;2022-12-07T08:38:20;101865.97;;;7.58;100.00
44765;BME280;30484;52.382;5.260;2022-12-07T08:40:58;101863.78;;;7.78;100.00
44765;BME280;30484;52.382;5.260;2022-12-07T08:43:28;101869.19;;;7.72;100.00
44765;BME280;30484;52.382;5.260;2022-12-07T08:46:06;101873.25;;;7.50;100.00
44765;BME280;30484;52.382;5.260;2022-12-07T08:48:44;101864.09;;;7.63;100.00
44765;BME280;30484;52.382;5.260;2022-12-07T08:51:14;101865.38;;;7.86;100.00
44765;BME280;30484;52.382;5.260;2022-12-07T08:53:45;101867.47;;;8.10;100.00
44765;BME280;30484;52.382;5.260;2022-12-07T08:56:16;101857.22;;;7.93;100.00
44765;BME280;30484;52.382;5.260;2022-12-07T08:58:44;101861.41;;;8.05;100.00
44765;BME280;30484;52.382;5.260;2022-12-07T09:01:16;101853.22;;;8.13;100.00
44765;BME280;30484;52.382;5.260;2022-12-07T09:03:46;101864.97;;;8.04;100.00
44765;BME280;30484;52.382;5.260;2022-12-07T09:06:18;101862.25;;;8.06;100.00
44765;BME280;30484;52.382;5.260;2022-12-07T09:08:51;101859.47;;;8.10;100.00
44765;BME280;30484;52.382;5.260;2022-12-07T09:11:26;101860.03;;;8.25;100.00
44765;BME280;30484;52.382;5.260;2022-12-07T09:13:56;101857.00;;;8.40;100.00
44765;BME280;30484;52.382;5.260;2022-12-07T09:16:27;101849.56;;;8.55;100.00
44765;BME280;30484;52.382;5.260;2022-12-07T09:18:56;101855.91;;;8.49;100.00
44765;BME280;30484;52.382;5.260;2022-12-07T09:21:25;101856.72;;;8.53;100.00
44765;BME280;30484;52.382;5.260;2022-12-07T09:23:55;101851.47;;;8.12;100.00
44765;BME280;30484;52.382;5.260;2022-12-07T09:26:26;101864.06;;;8.41;100.00
44765;BME280;30484;52.382;5.260;2022-12-07T09:28:59;101860.06;;;8.61;100.00
44765;BME280;30484;52.382;5.260;2022-12-07T09:31:28;101859.66;;;8.40;100.00
44765;BME280;30484;52.382;5.260;2022-12-07T09:34:00;101863.91;;;8.49;100.00
44765;BME280;30484;52.382;5.260;2022-12-07T09:36:31;101862.09;;;8.86;100.00
44765;BME280;30484;52.382;5.260;2022-12-07T09:39:01;101860.00;;;8.97;100.00
44765;BME280;30484;52.382;5.260;2022-12-07T09:41:33;101867.75;;;9.38;100.00
44765;BME280;30484;52.382;5.260;2022-12-07T09:44:14;101866.44;;;9.21;100.00
44765;BME280;30484;52.382;5.260;2022-12-07T09:46:47;101857.84;;;9.73;100.00
44765;BME280;30484;52.382;5.260;2022-12-07T09:49:20;101849.88;;;9.71;100.00
44765;BME280;30484;52.382;5.260;2022-12-07T09:52:01;101856.13;;;9.40;100.00
44765;BME280;30484;52.382;5.260;2022-12-07T09:54:37;101850.06;;;9.35;100.00
44765;BME280;30484;52.382;5.260;2022-12-07T09:57:11;101849.75;;;9.14;100.00
44765;BME280;30484;52.382;5.260;2022-12-07T09:59:48;101851.72;;;9.39;100.00
44765;BME280;30484;52.382;5.260;2022-12-07T10:02:37;101837.75;;;9.61;100.00
44765;BME280;30484;52.382;5.260;2022-12-07T10:05:12;101837.91;;;9.55;100.00
44765;BME280;30484;52.382;5.260;2022-12-07T10:07:50;101839.84;;;9.49;100.00
44765;BME280;30484;52.382;5.260;2022-12-07T10:10:25;101825.91;;;9.98;100.00
44765;BME280;30484;52.382;5.260;2022-12-07T10:13:07;101822.13;;;10.05;100.00
44765;BME280;30484;52.382;5.260;2022-12-07T10:15:49;101821.94;;;9.83;100.00
44765;BME280;30484;52.382;5.260;2022-12-07T10:18:31;101823.84;;;9.79;100.00
44765;BME280;30484;52.382;5.260;2022-12-07T10:21:11;101821.34;;;10.01;100.00
44765;BME280;30484;52.382;5.260;2022-12-07T10:23:41;101807.66;;;10.12;100.00
44765;BME280;30484;52.382;5.260;2022-12-07T10:26:28;101815.59;;;10.42;100.00
44765;BME280;30484;52.382;5.260;2022-12-07T10:29:15;101813.38;;;10.00;100.00
44765;BME280;30484;52.382;5.260;2022-12-07T10:31:49;101809.09;;;10.23;100.00
44765;BME280;30484;52.382;5.260;2022-12-07T10:34:26;101822.13;;;10.05;100.00
44765;BME280;30484;52.382;5.260;2022-12-07T10:37:15;101814.75;;;10.67;100.00
44765;BME280;30484;52.382;5.260;2022-12-07T10:39:49;101813.63;;;10.21;100.00
44765;BME280;30484;52.382;5.260;2022-12-07T10:42:21;101814.75;;;10.67;100.00
44765;BME280;30484;52.382;5.260;2022-12-07T10:45:12;101808.72;;;10.60;100.00
44765;BME280;30484;52.382;5.260;2022-12-07T10:47:46;101797.28;;;10.57;100.00
44765;BME280;30484;52.382;5.260;2022-12-07T10:50:52;101797.75;;;10.43;100.00
44765;BME280;30484;52.382;5.260;2022-12-07T10:53:58;101791.63;;;10.12;100.00
44765;BME280;30484;52.382;5.260;2022-12-07T10:57:07;101801.78;;;10.56;100.00
44765;BME280;30484;52.382;5.260;2022-12-07T11:00:00;101790.00;;;10.62;100.00
44765;BME280;30484;52.382;5.260;2022-12-07T11:06:10;101780.28;;;10.59;100.00
44765;BME280;30484;52.382;5.260;2022-12-07T11:11:50;101775.28;;;10.22;100.00
44765;BME280;30484;52.382;5.260;2022-12-07T11:14:31;101772.09;;;10.64;100.00
44765;BME280;30484;52.382;5.260;2022-12-07T11:17:15;101771.19;;;10.88;100.00
44765;BME280;30484;52.382;5.260;2022-12-07T11:20:02;101775.06;;;11.05;100.00
44765;BME280;30484;52.382;5.260;2022-12-07T11:22:40;101773.38;;;11.02;100.00
44765;BME280;30484;52.382;5.260;2022-12-07T11:25:25;101763.28;;;11.56;100.00
44765;BME280;30484;52.382;5.260;2022-12-07T11:28:15;101759.13;;;11.26;100.00
44765;BME280;30484;52.382;5.260;2022-12-07T11:30:57;101754.69;;;11.70;100.00
44765;BME280;30484;52.382;5.260;2022-12-07T11:33:38;101753.78;;;12.16;100.00
44765;BME280;30484;52.382;5.260;2022-12-07T11:36:29;101748.28;;;11.97;100.00
44765;BME280;30484;52.382;5.260;2022-12-07T11:39:04;101748.03;;;11.81;100.00
44765;BME280;30484;52.382;5.260;2022-12-07T11:41:37;101746.31;;;12.02;100.00
44765;BME280;30484;52.382;5.260;2022-12-07T11:44:24;101741.63;;;11.85;100.00
44765;BME280;30484;52.382;5.260;2022-12-07T11:47:01;101738.34;;;12.00;100.00
44765;BME280;30484;52.382;5.260;2022-12-07T11:49:43;101730.97;;;12.05;100.00
44765;BME280;30484;52.382;5.260;2022-12-07T11:52:22;101725.94;;;12.59;100.00
44765;BME280;30484;52.382;5.260;2022-12-07T11:54:54;101724.34;;;12.95;100.00
44765;BME280;30484;52.382;5.260;2022-12-07T11:57:32;101718.13;;;12.55;100.00
44765;BME280;30484;52.382;5.260;2022-12-07T12:00:14;101723.94;;;13.04;100.00
44765;BME280;30484;52.382;5.260;2022-12-07T12:02:51;101719.16;;;13.30;100.00
44765;BME280;30484;52.382;5.260;2022-12-07T12:05:28;101720.31;;;13.43;100.00
44765;BME280;30484;52.382;5.260;2022-12-07T12:08:13;101721.44;;;13.00;100.00
44765;BME280;30484;52.382;5.260;2022-12-07T12:11:18;101723.56;;;12.53;100.00
44765;BME280;30484;52.382;5.260;2022-12-07T12:14:36;101711.91;;;12.94;100.00
44765;BME280;30484;52.382;5.260;2022-12-07T12:17:56;101707.50;;;12.33;100.00
44765;BME280;30484;52.382;5.260;2022-12-07T12:20:35;101705.16;;;12.46;100.00
44765;BME280;30484;52.382;5.260;2022-12-07T12:23:12;101694.16;;;11.88;100.00
44765;BME280;30484;52.382;5.260;2022-12-07T12:25:46;101690.84;;;12.45;100.00
44765;BME280;30484;52.382;5.260;2022-12-07T12:28:24;101697.47;;;11.95;100.00
44765;BME280;30484;52.382;5.260;2022-12-07T12:31:09;101689.66;;;12.11;100.00
44765;BME280;30484;52.382;5.260;2022-12-07T12:33:44;101689.47;;;11.73;100.00
44765;BME280;30484;52.382;5.260;2022-12-07T12:36:26;101688.78;;;11.88;100.00
44765;BME280;30484;52.382;5.260;2022-12-07T12:39:11;101692.47;;;11.43;100.00
44765;BME280;30484;52.382;5.260;2022-12-07T12:41:59;101687.31;;;11.81;100.00
44765;BME280;30484;52.382;5.260;2022-12-07T12:45:17;101679.63;;;11.96;100.00
44765;BME280;30484;52.382;5.260;2022-12-07T12:47:56;101675.22;;;11.93;100.00
44765;BME280;30484;52.382;5.260;2022-12-07T12:50:30;101675.44;;;12.30;100.00
44765;BME280;30484;52.382;5.260;2022-12-07T12:53:19;101681.56;;;12.33;100.00
44765;BME280;30484;52.382;5.260;2022-12-07T12:56:34;101672.25;;;12.42;100.00
44765;BME280;30484;52.382;5.260;2022-12-07T12:59:27;101670.84;;;12.73;100.00
44765;BME280;30484;52.382;5.260;2022-12-07T13:02:19;101692.59;;;12.46;100.00
44765;BME280;30484;52.382;5.260;2022-12-07T13:04:55;101698.97;;;12.02;100.00
44765;BME280;30484;52.382;5.260;2022-12-07T13:07:59;101695.78;;;10.80;100.00
44765;BME280;30484;52.382;5.260;2022-12-07T13:10:42;101694.13;;;11.00;100.00
44765;BME280;30484;52.382;5.260;2022-12-07T13:13:33;101690.25;;;10.85;100.00
44765;BME280;30484;52.382;5.260;2022-12-07T13:16:38;101691.47;;;10.76;100.00
44765;BME280;30484;52.382;5.260;2022-12-07T13:19:56;101670.44;;;10.91;100.00
44765;BME280;30484;52.382;5.260;2022-12-07T13:22:51;101661.88;;;10.81;100.00
44765;BME280;30484;52.382;5.260;2022-12-07T13:26:12;101662.47;;;10.65;100.00
44765;BME280;30484;52.382;5.260;2022-12-07T13:28:47;101646.13;;;10.49;100.00
44765;BME280;30484;52.382;5.260;2022-12-07T13:31:32;101644.75;;;10.39;100.00
44765;BME280;30484;52.382;5.260;2022-12-07T13:34:03;101650.16;;;10.36;100.00
44765;BME280;30484;52.382;5.260;2022-12-07T13:36:38;101638.16;;;10.23;100.00
44765;BME280;30484;52.382;5.260;2022-12-07T13:39:19;101637.66;;;10.38;100.00